Time,TemperatureF,DewpointF,PressureIn,WindDirection,WindDirectionDegrees,WindSpeedMPH,WindSpeedGustMPH,Humidity,HourlyPrecipIn,Conditions,Clouds,dailyrainin,SoftwareType,DateUTC
2013-08-21 00:13:00,66.8,51.0,30.03,South,179,5.0,5.0,58,0.00,,,0.00,weatherlink.com 1.10,2013-08-21 07:13:00,
2013-08-21 00:28:00,67.3,52.0,30.03,South,177,0.0,1.0,58,0.00,,,0.00,weatherlink.com 1.10,2013-08-21 07:28:00,
2013-08-21 00:43:00,67.1,52.0,30.02,South,177,0.0,2.0,58,0.00,,,0.00,weatherlink.com 1.10,2013-08-21 07:43:00,
2013-08-21 00:58:00,67.1,52.0,30.02,South,177,0.0,1.0,59,0.00,,,0.00,weatherlink.com 1.10,2013-08-21 07:58:00,
2013-08-21 01:13:00,67.0,52.0,30.01,South,177,0.0,3.0,59,0.00,,,0.00,weatherlink.com 1.10,2013-08-21 08:13:00,
2013-08-21 01:28:00,66.7,52.0,30.01,South,177,0.0,1.0,60,0.00,,,0.00,weatherlink.com 1.10,2013-08-21 08:28:00,
2013-08-21 01:43:00,66.3,52.0,30.01,South,177,0.0,1.0,61,0.00,,,0.00,weatherlink.com 1.10,2013-08-21 08:43:00,
2013-08-21 01:58:00,65.9,52.0,30.00,South,177,0.0,1.0,62,0.00,,,0.00,weatherlink.com 1.10,2013-08-21 08:58:00,
2013-08-21 02:13:00,65.4,52.0,30.00,South,177,0.0,0.0,63,0.00,,,0.00,weatherlink.com 1.10,2013-08-21 09:13:00,
2013-08-21 02:28:00,64.7,53.0,30.00,South,177,0.0,0.0,65,0.00,,,0.00,weatherlink.com 1.10,2013-08-21 09:28:00,
2013-08-21 02:43:00,63.7,53.0,29.99,South,177,0.0,0.0,69,0.00,,,0.00,weatherlink.com 1.10,2013-08-21 09:43:00,
2013-08-21 02:58:00,62.8,54.0,29.99,South,177,0.0,0.0,73,0.00,,,0.00,weatherlink.com 1.10,2013-08-21 09:58:00,
2013-08-21 03:14:00,61.9,54.0,29.99,South,177,0.0,0.0,76,0.00,,,0.00,weatherlink.com 1.10,2013-08-21 10:14:00,
2013-08-21 03:29:00,61.0,54.0,29.98,South,177,0.0,1.0,78,0.00,,,0.00,weatherlink.com 1.10,2013-08-21 10:29:00,
2013-08-21 03:44:00,60.4,54.0,29.98,South,177,0.0,0.0,78,0.00,,,0.00,weatherlink.com 1.10,2013-08-21 10:44:00,
2013-08-21 03:59:00,59.8,54.0,29.97,South,177,0.0,1.0,80,0.00,,,0.00,weatherlink.com 1.10,2013-08-21 10:59:00,
2013-08-21 04:14:00,59.4,53.0,29.97,South,177,0.0,1.0,80,0.00,,,0.00,weatherlink.com 1.10,2013-08-21 11:14:00,
2013-08-21 04:29:00,58.9,53.0,29.97,South,177,0.0,3.0,81,0.00,,,0.00,weatherlink.com 1.10,2013-08-21 11:29:00,
2013-08-21 04:44:00,58.5,53.0,29.98,South,177,0.0,2.0,81,0.00,,,0.00,weatherlink.com 1.10,2013-08-21 11:44:00,
2013-08-21 04:59:00,58.2,53.0,29.97,South,177,0.0,2.0,82,0.00,,,0.00,weatherlink.com 1.10,2013-08-21 11:59:00,
2013-08-21 05:14:00,58.0,53.0,29.97,South,177,0.0,0.0,82,0.00,,,0.00,weatherlink.com 1.10,2013-08-21 12:14:00,
2013-08-21 05:29:00,57.4,52.0,29.97,South,177,0.0,3.0,83,0.00,,,0.00,weatherlink.com 1.10,2013-08-21 12:29:00,
2013-08-21 05:44:00,57.2,52.0,29.97,South,177,0.0,1.0,83,0.00,,,0.00,weatherlink.com 1.10,2013-08-21 12:44:00,
2013-08-21 05:59:00,57.3,52.0,29.98,South,177,0.0,1.0,83,0.00,,,0.00,weatherlink.com 1.10,2013-08-21 12:59:00,
2013-08-21 06:14:00,57.6,53.0,29.98,South,177,0.0,1.0,83,0.00,,,0.00,weatherlink.com 1.10,2013-08-21 13:14:00,
2013-08-21 06:29:00,58.0,53.0,29.98,South,177,0.0,2.0,83,0.00,,,0.00,weatherlink.com 1.10,2013-08-21 13:29:00,
2013-08-21 06:44:00,58.5,53.0,29.99,South,177,0.0,1.0,82,0.00,,,0.00,weatherlink.com 1.10,2013-08-21 13:44:00,
2013-08-21 06:59:00,59.3,54.0,29.99,South,177,1.0,2.0,81,0.00,,,0.00,weatherlink.com 1.10,2013-08-21 13:59:00,
2013-08-21 07:14:00,60.0,54.0,29.99,South,177,0.0,0.0,80,0.00,,,0.00,weatherlink.com 1.10,2013-08-21 14:14:00,
2013-08-21 07:29:00,60.9,54.0,30.00,South,177,0.0,3.0,79,0.00,,,0.00,weatherlink.com 1.10,2013-08-21 14:29:00,
2013-08-21 07:44:00,61.8,55.0,30.00,South,177,0.0,2.0,79,0.00,,,0.00,weatherlink.com 1.10,2013-08-21 14:44:00,
2013-08-21 07:59:00,63.0,56.0,30.00,South,177,0.0,0.0,77,0.00,,,0.00,weatherlink.com 1.10,2013-08-21 14:59:00,
2013-08-21 08:14:00,64.0,56.0,30.00,South,177,0.0,0.0,74,0.00,,,0.00,weatherlink.com 1.10,2013-08-21 15:14:00,
2013-08-21 08:29:00,65.1,55.0,30.00,South,177,0.0,0.0,71,0.00,,,0.00,weatherlink.com 1.10,2013-08-21 15:29:00,
2013-08-21 08:44:00,66.1,56.0,30.00,South,177,0.0,0.0,69,0.00,,,0.00,weatherlink.com 1.10,2013-08-21 15:44:00,
2013-08-21 08:59:00,67.3,55.0,30.00,South,177,0.0,2.0,65,0.00,,,0.00,weatherlink.com 1.10,2013-08-21 15:59:00,
2013-08-21 09:14:00,68.2,55.0,30.00,South,177,0.0,2.0,63,0.00,,,0.00,weatherlink.com 1.10,2013-08-21 16:14:00,
2013-08-21 09:29:00,69.0,54.0,30.01,South,177,0.0,2.0,60,0.00,,,0.00,weatherlink.com 1.10,2013-08-21 16:29:00,
2013-08-21 09:44:00,69.2,53.0,30.01,South,188,0.0,3.0,57,0.00,,,0.00,weatherlink.com 1.10,2013-08-21 16:44:00,
2013-08-21 09:59:00,69.2,54.0,30.02,NE,55,1.0,4.0,58,0.00,,,0.00,weatherlink.com 1.10,2013-08-21 16:59:00,
2013-08-21 10:14:00,68.8,53.0,30.02,South,186,2.0,7.0,57,0.00,,,0.00,weatherlink.com 1.10,2013-08-21 17:14:00,
2013-08-21 10:29:00,68.1,53.0,30.03,South,180,3.0,5.0,58,0.00,,,0.00,weatherlink.com 1.10,2013-08-21 17:29:00,
2013-08-21 10:44:00,68.1,54.0,30.03,SSW,194,0.0,2.0,60,0.00,,,0.00,weatherlink.com 1.10,2013-08-21 17:44:00,
2013-08-21 10:59:00,68.1,54.0,30.03,WSW,238,0.0,3.0,60,0.00,,,0.00,weatherlink.com 1.10,2013-08-21 17:59:00,
2013-08-21 11:14:00,68.1,53.0,30.03,SW,221,1.0,4.0,59,0.00,,,0.00,weatherlink.com 1.10,2013-08-21 18:14:00,
2013-08-21 11:29:00,68.3,53.0,30.02,SW,224,0.0,7.0,58,0.00,,,0.00,weatherlink.com 1.10,2013-08-21 18:29:00,
2013-08-21 11:44:00,68.6,53.0,30.02,SW,224,0.0,5.0,58,0.00,,,0.00,weatherlink.com 1.10,2013-08-21 18:44:00,
2013-08-21 11:59:00,69.1,54.0,30.02,West,261,1.0,5.0,58,0.00,,,0.00,weatherlink.com 1.10,2013-08-21 18:59:00,
2013-08-21 12:14:00,69.7,54.0,30.01,West,263,3.0,5.0,57,0.00,,,0.00,weatherlink.com 1.10,2013-08-21 19:14:00,
2013-08-21 12:29:00,70.0,53.0,30.01,SSE,166,0.0,3.0,56,0.00,,,0.00,weatherlink.com 1.10,2013-08-21 19:29:00,
2013-08-21 12:44:00,70.3,53.0,30.01,SSE,166,0.0,3.0,55,0.00,,,0.00,weatherlink.com 1.10,2013-08-21 19:44:00,
2013-08-21 12:59:00,70.8,53.0,30.00,SSE,166,0.0,1.0,54,0.00,,,0.00,weatherlink.com 1.10,2013-08-21 19:59:00,
2013-08-21 13:14:00,71.3,54.0,30.00,SSE,166,0.0,2.0,54,0.00,,,0.00,weatherlink.com 1.10,2013-08-21 20:14:00,
2013-08-21 13:29:00,71.9,54.0,29.99,South,181,0.0,3.0,53,0.00,,,0.00,weatherlink.com 1.10,2013-08-21 20:29:00,
2013-08-21 13:45:00,72.1,54.0,29.99,South,181,0.0,3.0,53,0.00,,,0.00,weatherlink.com 1.10,2013-08-21 20:45:00,
2013-08-21 14:00:00,72.3,54.0,29.99,South,181,1.0,3.0,53,0.00,,,0.00,weatherlink.com 1.10,2013-08-21 21:00:00,
2013-08-21 14:15:00,71.8,54.0,29.99,SSE,167,0.0,6.0,54,0.00,,,0.00,weatherlink.com 1.10,2013-08-21 21:15:00,
2013-08-21 14:30:00,71.7,54.0,29.98,South,176,0.0,3.0,54,0.00,,,0.00,weatherlink.com 1.10,2013-08-21 21:30:00,
2013-08-21 14:45:00,71.7,54.0,29.98,WSW,243,1.0,4.0,54,0.00,,,0.00,weatherlink.com 1.10,2013-08-21 21:45:00,
2013-08-21 15:00:00,73.0,53.0,29.98,WSW,254,1.0,7.0,50,0.00,,,0.00,weatherlink.com 1.10,2013-08-21 22:00:00,
2013-08-21 15:30:00,73.0,54.0,29.97,WSW,250,0.0,6.0,51,0.00,,,0.00,weatherlink.com 1.10,2013-08-21 22:30:00,
2013-08-21 15:45:00,72.4,54.0,29.97,SW,224,0.0,3.0,53,0.00,,,0.00,weatherlink.com 1.10,2013-08-21 22:45:00,
2013-08-21 16:00:00,72.9,55.0,29.97,SW,228,0.0,3.0,53,0.00,,,0.00,weatherlink.com 1.10,2013-08-21 23:00:00,
2013-08-21 16:15:00,72.7,54.0,29.97,SW,228,0.0,3.0,52,0.00,,,0.00,weatherlink.com 1.10,2013-08-21 23:15:00,
2013-08-21 16:30:00,73.0,54.0,29.96,SW,228,1.0,2.0,52,0.00,,,0.00,weatherlink.com 1.10,2013-08-21 23:30:00,
2013-08-21 16:45:00,73.7,52.0,29.96,NW,307,0.0,5.0,46,0.00,,,0.00,weatherlink.com 1.10,2013-08-21 23:45:00,
2013-08-21 17:00:00,73.8,52.0,29.96,SSE,164,0.0,4.0,47,0.00,,,0.00,weatherlink.com 1.10,2013-08-22 00:00:00,
2013-08-21 17:15:00,73.3,51.0,29.96,NNE,14,2.0,11.0,46,0.00,,,0.00,weatherlink.com 1.10,2013-08-22 00:15:00,
2013-08-21 17:30:00,72.7,51.0,29.96,NW,304,4.0,10.0,47,0.00,,,0.00,weatherlink.com 1.10,2013-08-22 00:30:00,
2013-08-21 17:45:00,71.8,51.0,29.96,North,1,0.0,12.0,48,0.00,,,0.00,weatherlink.com 1.10,2013-08-22 00:45:00,
2013-08-21 18:00:00,70.8,51.0,29.97,North,4,2.0,10.0,50,0.00,,,0.00,weatherlink.com 1.10,2013-08-22 01:00:00,
2013-08-21 18:15:00,70.2,52.0,29.98,NNE,14,0.0,7.0,52,0.00,,,0.00,weatherlink.com 1.10,2013-08-22 01:15:00,
2013-08-21 18:30:00,70.0,51.0,29.98,ENE,67,0.0,6.0,52,0.00,,,0.00,weatherlink.com 1.10,2013-08-22 01:30:00,
2013-08-21 18:45:00,69.7,53.0,30.00,ENE,67,0.0,1.0,55,0.00,,,0.00,weatherlink.com 1.10,2013-08-22 01:45:00,
2013-08-21 19:00:00,68.9,52.0,30.00,SE,124,3.0,12.0,56,0.00,,,0.00,weatherlink.com 1.10,2013-08-22 02:00:00,
2013-08-21 19:15:00,66.0,53.0,30.00,ENE,62,1.0,9.0,63,0.00,,,0.00,weatherlink.com 1.10,2013-08-22 02:15:00,
2013-08-21 19:30:00,64.8,51.0,30.01,SE,134,3.0,7.0,62,0.00,,,0.00,weatherlink.com 1.10,2013-08-22 02:30:00,
2013-08-21 19:45:00,65.2,50.0,30.02,East,89,4.0,9.0,58,0.00,,,0.00,weatherlink.com 1.10,2013-08-22 02:45:00,
2013-08-21 20:00:00,65.4,50.0,30.03,East,91,2.0,4.0,57,0.00,,,0.00,weatherlink.com 1.10,2013-08-22 03:00:00,
2013-08-21 20:15:00,65.9,49.0,30.03,NNE,20,0.0,4.0,54,0.00,,,0.00,weatherlink.com 1.10,2013-08-22 03:15:00,
2013-08-21 20:30:00,66.8,48.0,30.04,NE,37,2.0,5.0,51,0.00,,,0.00,weatherlink.com 1.10,2013-08-22 03:30:00,
2013-08-21 20:45:00,67.9,48.0,30.04,North,351,2.0,7.0,49,0.00,,,0.00,weatherlink.com 1.10,2013-08-22 03:45:00,
2013-08-21 21:00:00,67.7,48.0,30.05,NNW,348,1.0,8.0,49,0.00,,,0.00,weatherlink.com 1.10,2013-08-22 04:00:00,
2013-08-21 21:15:00,67.1,48.0,30.05,NE,47,1.0,6.0,51,0.00,,,0.00,weatherlink.com 1.10,2013-08-22 04:15:00,
2013-08-21 21:30:00,66.3,48.0,30.06,NNE,15,0.0,4.0,53,0.00,,,0.00,weatherlink.com 1.10,2013-08-22 04:30:00,
2013-08-21 21:45:00,66.0,49.0,30.06,North,350,0.0,4.0,54,0.00,,,0.00,weatherlink.com 1.10,2013-08-22 04:45:00,
2013-08-21 22:00:00,65.6,49.0,30.06,NNE,13,0.0,4.0,55,0.00,,,0.00,weatherlink.com 1.10,2013-08-22 05:00:00,
2013-08-21 22:15:00,65.3,49.0,30.05,North,2,1.0,6.0,56,0.00,,,0.00,weatherlink.com 1.10,2013-08-22 05:15:00,
2013-08-21 22:30:00,65.1,49.0,30.06,North,11,3.0,7.0,57,0.00,,,0.00,weatherlink.com 1.10,2013-08-22 05:30:00,
2013-08-21 22:45:00,65.0,49.0,30.06,North,360,4.0,8.0,57,0.00,,,0.00,weatherlink.com 1.10,2013-08-22 05:45:00,
2013-08-21 23:00:00,65.3,49.0,30.06,East,96,3.0,9.0,56,0.00,,,0.00,weatherlink.com 1.10,2013-08-22 06:00:00,
2013-08-21 23:15:00,65.2,49.0,30.06,NNE,17,0.0,3.0,57,0.00,,,0.00,weatherlink.com 1.10,2013-08-22 06:15:00,
2013-08-21 23:30:00,64.5,50.0,30.06,North,8,1.0,5.0,59,0.00,,,0.00,weatherlink.com 1.10,2013-08-22 06:30:00,
2013-08-21 23:45:00,64.1,49.0,30.06,North,359,0.0,5.0,59,0.00,,,0.00,weatherlink.com 1.10,2013-08-22 06:45:00,